sensor_id;sensor_type;location;lat;lon;timestamp;pressure;altitude;pressure_sealevel;temperature;humidity
52625;BME280;38519;52.540;13.410;2023-03-13T00:01:02;99878.94;;;5.59;100.00
52625;BME280;38519;52.540;13.410;2023-03-13T00:03:27;99876.84;;;5.65;100.00
52625;BME280;38519;52.540;13.410;2023-03-13T00:05:56;99882.03;;;5.65;100.00
52625;BME280;38519;52.540;13.410;2023-03-13T00:08:22;99872.09;;;5.71;100.00
52625;BME280;38519;52.540;13.410;2023-03-13T00:10:47;99877.53;;;5.74;100.00
52625;BME280;38519;52.540;13.410;2023-03-13T00:13:13;99867.72;;;5.70;100.00
52625;BME280;38519;52.540;13.410;2023-03-13T00:15:38;99871.69;;;5.77;100.00
52625;BME280;38519;52.540;13.410;2023-03-13T00:18:03;99873.72;;;5.81;100.00
52625;BME280;38519;52.540;13.410;2023-03-13T00:20:29;99863.94;;;5.77;100.00
52625;BME280;38519;52.540;13.410;2023-03-13T00:22:54;99868.78;;;5.84;100.00
52625;BME280;38519;52.540;13.410;2023-03-13T00:25:19;99862.22;;;5.77;100.00
52625;BME280;38519;52.540;13.410;2023-03-13T00:27:44;99867.00;;;5.83;100.00
52625;BME280;38519;52.540;13.410;2023-03-13T00:30:10;99869.22;;;5.78;100.00
52625;BME280;38519;52.540;13.410;2023-03-13T00:32:42;99857.53;;;5.83;100.00
52625;BME280;38519;52.540;13.410;2023-03-13T00:35:08;99855.31;;;5.88;100.00
52625;BME280;38519;52.540;13.410;2023-03-13T00:37:33;99851.50;;;5.95;100.00
52625;BME280;38519;52.540;13.410;2023-03-13T00:39:58;99853.47;;;5.97;100.00
52625;BME280;38519;52.540;13.410;2023-03-13T00:42:24;99847.19;;;5.95;100.00
52625;BME280;38519;52.540;13.410;2023-03-13T00:44:49;99843.47;;;6.02;100.00
52625;BME280;38519;52.540;13.410;2023-03-13T00:47:14;99839.81;;;6.00;100.00
52625;BME280;38519;52.540;13.410;2023-03-13T00:49:39;99833.09;;;6.02;100.00
52625;BME280;38519;52.540;13.410;2023-03-13T00:52:05;99827.22;;;6.05;100.00
52625;BME280;38519;52.540;13.410;2023-03-13T00:54:30;99824.75;;;6.06;100.00
52625;BME280;38519;52.540;13.410;2023-03-13T00:56:56;99825.63;;;6.07;100.00
52625;BME280;38519;52.540;13.410;2023-03-13T00:59:21;99823.16;;;6.08;100.00
52625;BME280;38519;52.540;13.410;2023-03-13T01:01:47;99822.41;;;6.09;100.00
52625;BME280;38519;52.540;13.410;2023-03-13T01:04:12;99809.66;;;6.12;100.00
52625;BME280;38519;52.540;13.410;2023-03-13T01:06:38;99806.31;;;6.13;100.00
52625;BME280;38519;52.540;13.410;2023-03-13T01:09:08;99815.19;;;6.17;100.00
52625;BME280;38519;52.540;13.410;2023-03-13T01:11:34;99821.84;;;6.13;100.00
52625;BME280;38519;52.540;13.410;2023-03-13T01:14:01;99812.25;;;6.12;100.00
52625;BME280;38519;52.540;13.410;2023-03-13T01:16:27;99810.38;;;6.22;100.00
52625;BME280;38519;52.540;13.410;2023-03-13T01:18:55;99812.28;;;6.24;100.00
52625;BME280;38519;52.540;13.410;2023-03-13T01:21:23;99805.84;;;6.19;100.00
52625;BME280;38519;52.540;13.410;2023-03-13T01:23:48;99813.50;;;6.17;100.00
52625;BME280;38519;52.540;13.410;2023-03-13T01:26:15;99814.22;;;6.27;100.00
52625;BME280;38519;52.540;13.410;2023-03-13T01:28:40;99807.66;;;6.20;100.00
52625;BME280;38519;52.540;13.410;2023-03-13T01:31:09;99809.13;;;6.16;100.00
52625;BME280;38519;52.540;13.410;2023-03-13T01:33:34;99808.00;;;6.25;100.00
52625;BME280;38519;52.540;13.410;2023-03-13T01:36:00;99823.44;;;6.23;100.00
52625;BME280;38519;52.540;13.410;2023-03-13T01:38:26;99817.91;;;6.30;100.00
52625;BME280;38519;52.540;13.410;2023-03-13T01:40:51;99810.97;;;6.29;100.00
52625;BME280;38519;52.540;13.410;2023-03-13T01:43:23;99813.88;;;6.34;100.00
52625;BME280;38519;52.540;13.410;2023-03-13T01:48:14;99800.13;;;6.35;100.00
52625;BME280;38519;52.540;13.410;2023-03-13T01:50:39;99801.59;;;6.31;100.00
52625;BME280;38519;52.540;13.410;2023-03-13T01:53:04;99795.59;;;6.32;100.00
52625;BME280;38519;52.540;13.410;2023-03-13T01:55:30;99795.06;;;6.36;100.00
52625;BME280;38519;52.540;13.410;2023-03-13T01:57:56;99786.63;;;6.39;100.00
52625;BME280;38519;52.540;13.410;2023-03-13T02:00:23;99789.97;;;6.38;100.00
52625;BME280;38519;52.540;13.410;2023-03-13T02:02:49;99787.28;;;6.36;100.00
52625;BME280;38519;52.540;13.410;2023-03-13T02:05:16;99775.91;;;6.34;100.00
52625;BME280;38519;52.540;13.410;2023-03-13T02:08:05;99782.63;;;6.32;100.00
52625;BME280;38519;52.540;13.410;2023-03-13T02:10:30;99778.16;;;6.30;100.00
52625;BME280;38519;52.540;13.410;2023-03-13T02:12:55;99769.34;;;6.40;100.00
52625;BME280;38519;52.540;13.410;2023-03-13T02:15:21;99763.59;;;6.32;100.00
52625;BME280;38519;52.540;13.410;2023-03-13T02:17:47;99760.78;;;6.29;100.00
52625;BME280;38519;52.540;13.410;2023-03-13T02:20:16;99755.16;;;6.34;100.00
52625;BME280;38519;52.540;13.410;2023-03-13T02:27:47;99752.91;;;6.39;100.00
52625;BME280;38519;52.540;13.410;2023-03-13T02:30:14;99748.72;;;6.41;100.00
52625;BME280;38519;52.540;13.410;2023-03-13T02:32:39;99747.72;;;6.39;100.00
52625;BME280;38519;52.540;13.410;2023-03-13T02:35:07;99742.06;;;6.45;100.00
52625;BME280;38519;52.540;13.410;2023-03-13T02:37:32;99740.06;;;6.41;100.00
52625;BME280;38519;52.540;13.410;2023-03-13T02:40:00;99743.41;;;6.40;100.00
52625;BME280;38519;52.540;13.410;2023-03-13T02:42:27;99732.69;;;6.47;100.00
52625;BME280;38519;52.540;13.410;2023-03-13T02:44:52;99735.88;;;6.43;100.00
52625;BME280;38519;52.540;13.410;2023-03-13T02:47:19;99733.03;;;6.51;100.00
52625;BME280;38519;52.540;13.410;2023-03-13T02:49:44;99729.09;;;6.56;100.00
52625;BME280;38519;52.540;13.410;2023-03-13T02:52:13;99721.34;;;6.56;100.00
52625;BME280;38519;52.540;13.410;2023-03-13T02:54:41;99718.41;;;6.52;100.00
52625;BME280;38519;52.540;13.410;2023-03-13T02:57:09;99713.31;;;6.53;100.00
52625;BME280;38519;52.540;13.410;2023-03-13T02:59:34;99705.88;;;6.58;100.00
52625;BME280;38519;52.540;13.410;2023-03-13T03:02:00;99701.69;;;6.60;100.00
52625;BME280;38519;52.540;13.410;2023-03-13T03:04:26;99701.22;;;6.66;100.00
52625;BME280;38519;52.540;13.410;2023-03-13T03:06:52;99697.72;;;6.65;100.00
52625;BME280;38519;52.540;13.410;2023-03-13T03:09:18;99695.91;;;6.64;100.00
52625;BME280;38519;52.540;13.410;2023-03-13T03:11:44;99686.31;;;6.75;100.00
52625;BME280;38519;52.540;13.410;2023-03-13T03:14:10;99683.72;;;6.75;100.00
52625;BME280;38519;52.540;13.410;2023-03-13T03:16:35;99671.75;;;6.77;100.00
52625;BME280;38519;52.540;13.410;2023-03-13T03:19:01;99676.16;;;6.78;100.00
52625;BME280;38519;52.540;13.410;2023-03-13T03:21:27;99674.56;;;6.80;100.00
52625;BME280;38519;52.540;13.410;2023-03-13T03:23:52;99669.97;;;6.76;100.00
52625;BME280;38519;52.540;13.410;2023-03-13T03:26:17;99671.19;;;6.81;100.00
52625;BME280;38519;52.540;13.410;2023-03-13T03:28:43;99667.22;;;6.86;100.00
52625;BME280;38519;52.540;13.410;2023-03-13T03:31:10;99665.34;;;6.84;100.00
52625;BME280;38519;52.540;13.410;2023-03-13T03:33:36;99667.94;;;6.84;100.00
52625;BME280;38519;52.540;13.410;2023-03-13T03:36:02;99665.34;;;6.84;100.00
52625;BME280;38519;52.540;13.410;2023-03-13T03:38:29;99662.72;;;6.84;100.00
52625;BME280;38519;52.540;13.410;2023-03-13T03:40:54;99660.81;;;6.81;100.00
52625;BME280;38519;52.540;13.410;2023-03-13T03:43:19;99657.66;;;6.73;100.00
52625;BME280;38519;52.540;13.410;2023-03-13T03:45:45;99652.81;;;6.78;100.00
52625;BME280;38519;52.540;13.410;2023-03-13T03:48:10;99649.53;;;6.81;100.00
52625;BME280;38519;52.540;13.410;2023-03-13T03:50:36;99647.41;;;6.75;100.00
52625;BME280;38519;52.540;13.410;2023-03-13T03:53:02;99640.94;;;6.82;100.00
52625;BME280;38519;52.540;13.410;2023-03-13T03:55:27;99642.53;;;6.80;100.00
52625;BME280;38519;52.540;13.410;2023-03-13T03:57:53;99635.66;;;6.80;100.00
52625;BME280;38519;52.540;13.410;2023-03-13T04:00:18;99631.28;;;6.79;100.00
52625;BME280;38519;52.540;13.410;2023-03-13T04:02:44;99627.88;;;6.80;100.00
52625;BME280;38519;52.540;13.410;2023-03-13T04:05:09;99624.50;;;6.81;100.00
52625;BME280;38519;52.540;13.410;2023-03-13T04:07:35;99620.88;;;6.79;100.00
52625;BME280;38519;52.540;13.410;2023-03-13T04:10:01;99622.88;;;6.83;100.00
52625;BME280;38519;52.540;13.410;2023-03-13T04:12:26;99602.13;;;6.83;100.00
52625;BME280;38519;52.540;13.410;2023-03-13T04:14:52;99607.53;;;6.86;100.00
52625;BME280;38519;52.540;13.410;2023-03-13T04:17:17;99608.31;;;6.85;100.00
52625;BME280;38519;52.540;13.410;2023-03-13T04:19:42;99606.31;;;6.81;100.00
52625;BME280;38519;52.540;13.410;2023-03-13T04:22:07;99606.66;;;6.74;100.00
52625;BME280;38519;52.540;13.410;2023-03-13T04:24:32;99595.63;;;6.77;100.00
52625;BME280;38519;52.540;13.410;2023-03-13T04:26:58;99592.47;;;6.81;100.00
52625;BME280;38519;52.540;13.410;2023-03-13T04:29:24;99584.78;;;6.82;100.00
52625;BME280;38519;52.540;13.410;2023-03-13T04:31:49;99583.75;;;6.80;100.00
52625;BME280;38519;52.540;13.410;2023-03-13T04:34:15;99573.59;;;6.83;100.00
52625;BME280;38519;52.540;13.410;2023-03-13T04:36:40;99572.81;;;6.84;100.00
52625;BME280;38519;52.540;13.410;2023-03-13T04:39:05;99564.03;;;6.82;100.00
52625;BME280;38519;52.540;13.410;2023-03-13T04:41:31;99558.84;;;6.82;100.00
52625;BME280;38519;52.540;13.410;2023-03-13T04:43:56;99553.03;;;6.86;100.00
52625;BME280;38519;52.540;13.410;2023-03-13T04:46:22;99553.94;;;6.87;100.00
52625;BME280;38519;52.540;13.410;2023-03-13T04:48:47;99555.75;;;6.88;100.00
52625;BME280;38519;52.540;13.410;2023-03-13T04:51:12;99551.22;;;6.85;100.00
52625;BME280;38519;52.540;13.410;2023-03-13T04:53:38;99543.94;;;6.80;100.00
52625;BME280;38519;52.540;13.410;2023-03-13T04:56:03;99541.66;;;6.84;100.00
52625;BME280;38519;52.540;13.410;2023-03-13T04:58:29;99531.41;;;6.86;100.00
52625;BME280;38519;52.540;13.410;2023-03-13T05:00:54;99536.69;;;6.87;100.00
52625;BME280;38519;52.540;13.410;2023-03-13T05:03:21;99531.41;;;6.86;100.00
52625;BME280;38519;52.540;13.410;2023-03-13T05:05:47;99524.72;;;6.89;100.00
52625;BME280;38519;52.540;13.410;2023-03-13T05:08:12;99512.31;;;6.85;100.00
52625;BME280;38519;52.540;13.410;2023-03-13T05:10:38;99504.91;;;6.78;100.00
52625;BME280;38519;52.540;13.410;2023-03-13T05:13:03;99500.94;;;6.83;100.00
52625;BME280;38519;52.540;13.410;2023-03-13T05:15:28;99482.97;;;6.86;100.00
52625;BME280;38519;52.540;13.410;2023-03-13T05:17:54;99483.78;;;6.85;100.00
52625;BME280;38519;52.540;13.410;2023-03-13T05:20:19;99483.97;;;6.88;100.00
52625;BME280;38519;52.540;13.410;2023-03-13T05:22:45;99476.31;;;6.90;100.00
52625;BME280;38519;52.540;13.410;2023-03-13T05:25:10;99478.22;;;6.92;100.00
52625;BME280;38519;52.540;13.410;2023-03-13T05:27:36;99474.94;;;6.95;100.00
52625;BME280;38519;52.540;13.410;2023-03-13T05:30:01;99475.22;;;7.00;100.00
52625;BME280;38519;52.540;13.410;2023-03-13T05:32:26;99470.34;;;7.04;100.00
52625;BME280;38519;52.540;13.410;2023-03-13T05:34:52;99460.66;;;7.02;100.00
52625;BME280;38519;52.540;13.410;2023-03-13T05:37:17;99460.47;;;6.99;100.00
52625;BME280;38519;52.540;13.410;2023-03-13T05:39:43;99459.84;;;7.03;100.00
52625;BME280;38519;52.540;13.410;2023-03-13T05:42:08;99448.59;;;7.02;100.00
52625;BME280;38519;52.540;13.410;2023-03-13T05:44:33;99449.47;;;7.03;100.00
52625;BME280;38519;52.540;13.410;2023-03-13T05:46:59;99436.13;;;6.97;100.00
52625;BME280;38519;52.540;13.410;2023-03-13T05:49:24;99438.88;;;7.00;100.00
52625;BME280;38519;52.540;13.410;2023-03-13T05:51:50;99432.13;;;7.02;100.00
52625;BME280;38519;52.540;13.410;2023-03-13T05:54:16;99425.13;;;7.01;100.00
52625;BME280;38519;52.540;13.410;2023-03-13T05:56:41;99418.63;;;6.94;100.00
52625;BME280;38519;52.540;13.410;2023-03-13T05:59:08;99420.44;;;6.95;100.00
52625;BME280;38519;52.540;13.410;2023-03-13T06:01:34;99407.84;;;7.01;100.00
52625;BME280;38519;52.540;13.410;2023-03-13T06:03:59;99407.63;;;6.98;100.00
52625;BME280;38519;52.540;13.410;2023-03-13T06:06:25;99398.06;;;6.97;100.00
52625;BME280;38519;52.540;13.410;2023-03-13T06:08:50;99403.56;;;7.02;100.00
52625;BME280;38519;52.540;13.410;2023-03-13T06:11:16;99397.19;;;6.97;100.00
52625;BME280;38519;52.540;13.410;2023-03-13T06:13:41;99397.09;;;6.95;100.00
52625;BME280;38519;52.540;13.410;2023-03-13T06:16:07;99404.97;;;6.97;100.00
52625;BME280;38519;52.540;13.410;2023-03-13T06:18:33;99396.16;;;6.95;100.00
52625;BME280;38519;52.540;13.410;2023-03-13T06:20:59;99380.78;;;6.98;100.00
52625;BME280;38519;52.540;13.410;2023-03-13T06:23:25;99380.69;;;6.96;100.00
52625;BME280;38519;52.540;13.410;2023-03-13T06:25:51;99370.31;;;6.96;100.00
52625;BME280;38519;52.540;13.410;2023-03-13T06:28:16;99372.13;;;6.97;100.00
52625;BME280;38519;52.540;13.410;2023-03-13T06:30:41;99368.53;;;6.95;100.00
52625;BME280;38519;52.540;13.410;2023-03-13T06:33:07;99353.56;;;6.91;100.00
52625;BME280;38519;52.540;13.410;2023-03-13T06:35:32;99351.44;;;6.85;100.00
52625;BME280;38519;52.540;13.410;2023-03-13T06:37:58;99343.06;;;6.89;100.00
52625;BME280;38519;52.540;13.410;2023-03-13T06:40:23;99336.91;;;6.87;100.00
52625;BME280;38519;52.540;13.410;2023-03-13T06:42:49;99322.31;;;6.89;100.00
52625;BME280;38519;52.540;13.410;2023-03-13T06:45:14;99324.13;;;6.90;100.00
52625;BME280;38519;52.540;13.410;2023-03-13T06:47:42;99326.69;;;7.04;100.00
52625;BME280;38519;52.540;13.410;2023-03-13T06:50:08;99309.31;;;7.03;100.00
52625;BME280;38519;52.540;13.410;2023-03-13T06:52:34;99306.25;;;6.95;100.00
52625;BME280;38519;52.540;13.410;2023-03-13T06:54:59;99291.56;;;6.96;100.00
52625;BME280;38519;52.540;13.410;2023-03-13T06:57:25;99292.06;;;7.03;100.00
52625;BME280;38519;52.540;13.410;2023-03-13T06:59:51;99287.44;;;7.13;100.00
52625;BME280;38519;52.540;13.410;2023-03-13T07:02:16;99283.47;;;7.18;100.00
52625;BME280;38519;52.540;13.410;2023-03-13T07:04:42;99282.16;;;7.11;100.00
52625;BME280;38519;52.540;13.410;2023-03-13T07:07:08;99284.06;;;7.14;100.00
52625;BME280;38519;52.540;13.410;2023-03-13T07:09:33;99286.56;;;7.12;100.00
52625;BME280;38519;52.540;13.410;2023-03-13T07:11:58;99285.13;;;7.17;100.00
52625;BME280;38519;52.540;13.410;2023-03-13T07:14:24;99280.97;;;7.19;100.00
52625;BME280;38519;52.540;13.410;2023-03-13T07:16:49;99283.38;;;7.16;100.00
52625;BME280;38519;52.540;13.410;2023-03-13T07:19:15;99284.50;;;7.35;100.00
52625;BME280;38519;52.540;13.410;2023-03-13T07:21:40;99286.59;;;7.40;100.00
52625;BME280;38519;52.540;13.410;2023-03-13T07:24:05;99277.09;;;7.41;100.00
52625;BME280;38519;52.540;13.410;2023-03-13T07:26:31;99270.09;;;7.40;100.00
52625;BME280;38519;52.540;13.410;2023-03-13T07:28:57;99261.22;;;7.36;100.00
52625;BME280;38519;52.540;13.410;2023-03-13T07:31:22;99271.31;;;7.45;100.00
52625;BME280;38519;52.540;13.410;2023-03-13T07:33:48;99272.00;;;7.42;100.00
52625;BME280;38519;52.540;13.410;2023-03-13T07:36:17;99258.72;;;7.38;100.00
52625;BME280;38519;52.540;13.410;2023-03-13T07:41:17;99255.91;;;7.48;100.00
52625;BME280;38519;52.540;13.410;2023-03-13T07:43:42;99252.97;;;7.57;100.00
52625;BME280;38519;52.540;13.410;2023-03-13T07:46:09;99250.56;;;7.60;100.00
52625;BME280;38519;52.540;13.410;2023-03-13T07:48:36;99243.06;;;7.64;100.00
52625;BME280;38519;52.540;13.410;2023-03-13T07:51:02;99225.66;;;7.63;100.00
52625;BME280;38519;52.540;13.410;2023-03-13T07:53:27;99224.41;;;7.72;100.00
52625;BME280;38519;52.540;13.410;2023-03-13T07:55:54;99224.50;;;7.73;100.00
52625;BME280;38519;52.540;13.410;2023-03-13T07:58:19;99219.56;;;7.63;100.00
52625;BME280;38519;52.540;13.410;2023-03-13T08:00:45;99206.97;;;7.69;100.00
52625;BME280;38519;52.540;13.410;2023-03-13T08:03:10;99213.50;;;7.77;100.00
52625;BME280;38519;52.540;13.410;2023-03-13T08:05:35;99217.00;;;7.78;100.00
52625;BME280;38519;52.540;13.410;2023-03-13T08:08:00;99208.31;;;7.77;100.00
52625;BME280;38519;52.540;13.410;2023-03-13T08:10:26;99201.22;;;7.75;100.00
52625;BME280;38519;52.540;13.410;2023-03-13T08:12:51;99197.72;;;7.74;100.00
52625;BME280;38519;52.540;13.410;2023-03-13T08:15:16;99201.22;;;7.75;100.00
52625;BME280;38519;52.540;13.410;2023-03-13T08:17:48;99197.91;;;7.77;100.00
52625;BME280;38519;52.540;13.410;2023-03-13T08:20:13;99186.47;;;7.74;100.00
52625;BME280;38519;52.540;13.410;2023-03-13T08:22:38;99187.72;;;7.80;100.00
52625;BME280;38519;52.540;13.410;2023-03-13T08:25:04;99181.97;;;7.86;100.00
52625;BME280;38519;52.540;13.410;2023-03-13T08:27:29;99173.09;;;7.82;100.00
52625;BME280;38519;52.540;13.410;2023-03-13T08:29:54;99165.41;;;7.84;100.00
52625;BME280;38519;52.540;13.410;2023-03-13T08:32:20;99166.19;;;7.83;100.00
52625;BME280;38519;52.540;13.410;2023-03-13T08:34:46;99164.50;;;7.83;100.00
52625;BME280;38519;52.540;13.410;2023-03-13T08:37:13;99165.41;;;7.84;100.00
52625;BME280;38519;52.540;13.410;2023-03-13T08:39:39;99156.72;;;7.83;100.00
52625;BME280;38519;52.540;13.410;2023-03-13T08:42:04;99149.44;;;7.78;100.00
52625;BME280;38519;52.540;13.410;2023-03-13T08:44:29;99148.19;;;7.86;100.00
52625;BME280;38519;52.540;13.410;2023-03-13T08:46:54;99159.59;;;7.88;100.00
52625;BME280;38519;52.540;13.410;2023-03-13T08:49:20;99151.94;;;7.91;100.00
52625;BME280;38519;52.540;13.410;2023-03-13T08:51:46;99145.16;;;7.93;100.00
52625;BME280;38519;52.540;13.410;2023-03-13T08:54:11;99154.53;;;7.91;100.00
52625;BME280;38519;52.540;13.410;2023-03-13T08:56:36;99138.22;;;7.94;100.00
52625;BME280;38519;52.540;13.410;2023-03-13T08:59:02;99135.91;;;7.98;100.00
52625;BME280;38519;52.540;13.410;2023-03-13T09:01:29;99129.34;;;8.05;100.00
52625;BME280;38519;52.540;13.410;2023-03-13T09:03:55;99129.69;;;8.11;100.00
52625;BME280;38519;52.540;13.410;2023-03-13T09:06:20;99125.38;;;8.12;100.00
52625;BME280;38519;52.540;13.410;2023-03-13T09:08:46;99115.25;;;8.16;100.00
52625;BME280;38519;52.540;13.410;2023-03-13T09:11:12;99113.88;;;8.23;100.00
52625;BME280;38519;52.540;13.410;2023-03-13T09:13:39;99113.53;;;8.32;100.00
52625;BME280;38519;52.540;13.410;2023-03-13T09:16:06;99104.97;;;8.34;100.00
52625;BME280;38519;52.540;13.410;2023-03-13T09:18:32;99110.91;;;8.47;100.00
52625;BME280;38519;52.540;13.410;2023-03-13T09:20:57;99105.41;;;8.42;100.00
52625;BME280;38519;52.540;13.410;2023-03-13T09:23:23;99116.66;;;8.41;100.00
52625;BME280;38519;52.540;13.410;2023-03-13T09:25:48;99107.59;;;8.49;100.00
52625;BME280;38519;52.540;13.410;2023-03-13T09:28:16;99111.16;;;8.51;100.00
52625;BME280;38519;52.540;13.410;2023-03-13T09:30:41;99106.03;;;8.53;100.00
52625;BME280;38519;52.540;13.410;2023-03-13T09:33:06;99097.66;;;8.59;100.00
52625;BME280;38519;52.540;13.410;2023-03-13T09:35:31;99115.97;;;8.60;100.00
52625;BME280;38519;52.540;13.410;2023-03-13T09:37:57;99105.38;;;8.57;100.00
52625;BME280;38519;52.540;13.410;2023-03-13T09:40:23;99111.69;;;8.61;100.00
52625;BME280;38519;52.540;13.410;2023-03-13T09:42:53;99112.38;;;8.58;100.00
52625;BME280;38519;52.540;13.410;2023-03-13T09:47:57;99105.19;;;8.69;100.00
52625;BME280;38519;52.540;13.410;2023-03-13T09:50:34;99107.13;;;8.73;100.00
52625;BME280;38519;52.540;13.410;2023-03-13T09:53:05;99100.41;;;8.77;100.00
52625;BME280;38519;52.540;13.410;2023-03-13T09:55:37;99088.28;;;8.77;100.00
52625;BME280;38519;52.540;13.410;2023-03-13T09:58:10;99084.63;;;8.73;100.00
52625;BME280;38519;52.540;13.410;2023-03-13T10:00:38;99088.34;;;8.79;100.00
52625;BME280;38519;52.540;13.410;2023-03-13T10:05:35;99083.22;;;8.97;100.00
52625;BME280;38519;52.540;13.410;2023-03-13T10:08:17;99091.44;;;9.04;100.00
52625;BME280;38519;52.540;13.410;2023-03-13T10:11:02;99093.38;;;9.08;100.00
52625;BME280;38519;52.540;13.410;2023-03-13T10:13:45;99086.22;;;9.21;100.00
52625;BME280;38519;52.540;13.410;2023-03-13T10:16:17;99094.94;;;9.21;100.00
52625;BME280;38519;52.540;13.410;2023-03-13T10:18:45;99081.34;;;9.27;100.00
52625;BME280;38519;52.540;13.410;2023-03-13T10:21:14;99082.28;;;9.29;100.00
52625;BME280;38519;52.540;13.410;2023-03-13T10:23:43;99074.97;;;9.38;100.00
52625;BME280;38519;52.540;13.410;2023-03-13T10:26:25;99070.88;;;9.43;100.00
52625;BME280;38519;52.540;13.410;2023-03-13T10:28:52;99077.09;;;9.45;100.00
52625;BME280;38519;52.540;13.410;2023-03-13T10:31:22;99076.34;;;9.66;100.00
52625;BME280;38519;52.540;13.410;2023-03-13T10:33:50;99060.44;;;9.78;100.00
52625;BME280;38519;52.540;13.410;2023-03-13T10:36:15;99068.19;;;9.76;100.00
52625;BME280;38519;52.540;13.410;2023-03-13T10:38:47;99055.16;;;9.76;100.00
52625;BME280;38519;52.540;13.410;2023-03-13T10:43:51;99054.91;;;10.08;100.00
52625;BME280;38519;52.540;13.410;2023-03-13T10:46:30;99057.22;;;10.19;100.00
52625;BME280;38519;52.540;13.410;2023-03-13T10:48:55;99060.66;;;10.36;100.00
52625;BME280;38519;52.540;13.410;2023-03-13T10:51:22;99045.66;;;10.50;100.00
52625;BME280;38519;52.540;13.410;2023-03-13T10:53:48;99047.91;;;10.62;100.00
52625;BME280;38519;52.540;13.410;2023-03-13T10:56:14;99034.72;;;10.59;100.00
52625;BME280;38519;52.540;13.410;2023-03-13T11:03:43;99036.38;;;10.96;100.00
52625;BME280;38519;52.540;13.410;2023-03-13T11:06:23;99036.03;;;11.08;100.00
52625;BME280;38519;52.540;13.410;2023-03-13T11:08:48;99026.75;;;11.15;100.00
52625;BME280;38519;52.540;13.410;2023-03-13T11:11:17;99021.03;;;11.23;100.00
52625;BME280;38519;52.540;13.410;2023-03-13T11:13:43;99018.00;;;11.34;100.00
52625;BME280;38519;52.540;13.410;2023-03-13T11:16:30;99015.06;;;11.47;100.00
52625;BME280;38519;52.540;13.410;2023-03-13T11:19:07;99015.19;;;11.71;100.00
52625;BME280;38519;52.540;13.410;2023-03-13T11:24:04;99006.75;;;11.99;100.00
52625;BME280;38519;52.540;13.410;2023-03-13T11:26:45;99006.09;;;12.05;100.00
52625;BME280;38519;52.540;13.410;2023-03-13T11:29:28;99002.00;;;12.12;100.00
52625;BME280;38519;52.540;13.410;2023-03-13T11:31:57;99002.00;;;12.12;100.00
52625;BME280;38519;52.540;13.410;2023-03-13T11:34:30;99005.34;;;12.08;100.00
52625;BME280;38519;52.540;13.410;2023-03-13T11:37:02;98997.91;;;12.18;100.00
52625;BME280;38519;52.540;13.410;2023-03-13T11:42:03;98999.28;;;12.31;100.00
52625;BME280;38519;52.540;13.410;2023-03-13T11:50:06;98993.72;;;12.46;100.00
52625;BME280;38519;52.540;13.410;2023-03-13T11:56:19;98991.03;;;12.45;100.00
52625;BME280;38519;52.540;13.410;2023-03-13T12:01:02;98993.28;;;12.58;100.00
52625;BME280;38519;52.540;13.410;2023-03-13T12:03:34;98992.63;;;12.64;100.00
52625;BME280;38519;52.540;13.410;2023-03-13T12:06:00;98988.22;;;12.63;100.00
52625;BME280;38519;52.540;13.410;2023-03-13T12:11:12;98986.13;;;12.77;100.00
52625;BME280;38519;52.540;13.410;2023-03-13T12:13:41;98983.75;;;13.08;100.00
52625;BME280;38519;52.540;13.410;2023-03-13T12:16:18;98979.28;;;13.06;100.00
52625;BME280;38519;52.540;13.410;2023-03-13T12:18:45;98986.97;;;13.01;100.00
52625;BME280;38519;52.540;13.410;2023-03-13T12:33:35;98968.66;;;13.27;100.00
52625;BME280;38519;52.540;13.410;2023-03-13T12:36:23;98969.69;;;13.32;100.00
52625;BME280;38519;52.540;13.410;2023-03-13T12:39:14;98967.03;;;13.83;100.00
52625;BME280;38519;52.540;13.410;2023-03-13T12:42:12;98956.66;;;13.88;100.00
52625;BME280;38519;52.540;13.410;2023-03-13T12:44:31;98976.47;;;13.78;100.00
52625;BME280;38519;52.540;13.410;2023-03-13T12:49:28;98954.38;;;13.70;100.00
52625;BME280;38519;52.540;13.410;2023-03-13T12:59:48;98941.78;;;14.77;100.00
52625;BME280;38519;52.540;13.410;2023-03-13T13:02:14;98951.03;;;14.94;100.00
52625;BME280;38519;52.540;13.410;2023-03-13T13:04:41;98938.88;;;15.33;100.00
52625;BME280;38519;52.540;13.410;2023-03-13T13:10:31;98931.47;;;15.51;100.00
52625;BME280;38519;52.540;13.410;2023-03-13T13:12:31;98925.97;;;15.77;100.00
52625;BME280;38519;52.540;13.410;2023-03-13T13:19:50;98932.97;;;17.03;100.00
52625;BME280;38519;52.540;13.410;2023-03-13T13:29:56;98909.00;;;16.02;100.00
52625;BME280;38519;52.540;13.410;2023-03-13T13:32:34;98904.50;;;15.98;100.00
52625;BME280;38519;52.540;13.410;2023-03-13T13:37:24;98904.91;;;16.16;100.00
52625;BME280;38519;52.540;13.410;2023-03-13T13:39:52;98901.50;;;16.22;100.00
52625;BME280;38519;52.540;13.410;2023-03-13T13:47:23;98890.25;;;16.29;100.00
52625;BME280;38519;52.540;13.410;2023-03-13T13:49:50;98889.00;;;16.12;100.00
52625;BME280;38519;52.540;13.410;2023-03-13T13:52:17;98889.63;;;16.00;100.00
52625;BME280;38519;52.540;13.410;2023-03-13T13:57:13;98906.81;;;15.84;100.00
52625;BME280;38519;52.540;13.410;2023-03-13T13:59:42;98900.88;;;15.93;100.00
52625;BME280;38519;52.540;13.410;2023-03-13T14:02:24;98888.97;;;16.10;100.00
52625;BME280;38519;52.540;13.410;2023-03-13T14:04:54;98896.78;;;16.06;100.00
52625;BME280;38519;52.540;13.410;2023-03-13T14:07:24;98898.88;;;15.82;100.00
52625;BME280;38519;52.540;13.410;2023-03-13T14:09:57;98896.72;;;16.02;100.00
52625;BME280;38519;52.540;13.410;2023-03-13T14:15:32;98891.63;;;16.10;100.00
52625;BME280;38519;52.540;13.410;2023-03-13T14:17:54;98889.59;;;15.98;100.00
52625;BME280;38519;52.540;13.410;2023-03-13T14:20:24;98890.44;;;15.96;100.00